Latest Coastal Weather Observations for Norah Head

IDN60701

Issued at 10:21 pm EST Wednesday 28 June 2017 (issued every 10 minutes, with the page automatically refreshed every 10 minutes)

About coastal observations | Map of coastal stations | Coastal observations for NSW | Marine services | Other Formats
Station Details ID: 061366 Name: NORAH HEAD AWS Lat: -33.28 Lon: 151.58 Height: 18.8 m
Data from the previous 72 hours. | See also: Recent months at Norah Head
Date/Time
EST
Temp
°C
Wind Pressure Rain since
9am
mm
Weather Cloud Vis
km
Sea
Height
m
Swell
Dir  Spd
kts
Gust
kts
hPa Trend Height
m
Period
s
Dir
28/10:00pm 13.0 WSW 2 3 1021.9 - 3.4 - - - - - - -
28/09:30pm 13.0 W 1 2 1021.6 - 3.4 - - - - - - -
28/09:00pm 12.9 WNW 2 3 1021.7 - 3.4 - - - - - - -
28/08:30pm 13.0 WNW 3 5 1022.0 - 3.4 - - - - - - -
28/08:00pm 13.3 NW 4 5 1021.6 - 3.4 - - - - - - -
28/07:30pm 13.6 NNW 4 6 1021.5 - 3.4 - - - - - - -
28/07:00pm 13.7 NNW 6 9 1021.4 - 3.4 - - - - - - -
28/06:30pm 13.7 NW 5 8 1021.1 - 3.4 - - - - - - -
28/06:00pm 13.9 NNW 7 10 1021.0 - 3.4 - - - - - - -
28/05:30pm 14.1 N 9 10 1021.1 - 3.4 - - - - - - -
28/05:00pm 13.9 N 6 8 1020.9 - 3.4 - - - - - - -
28/04:30pm 13.8 NNW 5 7 1021.1 - 3.4 - - - - - - -
28/04:00pm 13.8 NNW 4 8 1021.4 - 3.4 - - - - - - -
28/03:30pm 13.6 NW 4 7 1021.7 - 3.2 - - - - - - -
28/03:00pm 13.5 NW 2 4 1021.7 - 2.4 Rain - - - - - -
28/02:30pm 13.6 W 3 5 1021.7 - 1.4 - - - - - - -
28/02:00pm 13.9 WNW 2 3 1021.6 - 1.2 - - - - - - -
28/01:30pm 14.4 WNW 3 6 1021.6 - 0.4 - - - - - - -
28/01:00pm 15.4 WNW 2 4 1021.4 - 0.0 - - - - - - -
28/12:30pm 15.6 NW 3 6 1021.3 - 0.0 - - - - - - -
28/12:00pm 15.8 NNW 6 8 1021.3 - 0.0 - - - - - - -
28/11:30am 16.0 N 6 7 1021.7 - 0.0 - - - - - - -
28/11:00am 16.2 N 7 8 1022.1 - 0.0 - - - - - - -
28/10:30am 16.2 N 4 5 1022.6 - 0.0 - - - - - - -
28/10:00am 15.6 NNW 4 6 1022.7 - 0.0 - - - - - - -
28/09:30am 15.9 N 3 5 1022.8 - 0.0 - - - - - - -
28/09:00am 14.1 NW 2 3 1022.8 - - - - - - - - -
28/08:30am 12.7 WNW 1 3 1023.0 - - - - - - - - -
28/08:00am 12.5 NW 2 3 1022.8 - - - - - - - - -
28/07:30am 12.0 WNW 2 3 1023.0 - - - - - - - - -
28/07:00am 12.4 W 4 7 1023.0 - - - - - - - - -
28/06:30am 12.9 WNW 3 5 1022.7 - - - - - - - - -
28/06:00am 13.2 NW 4 6 1022.6 - - - - - - - - -
28/05:30am 13.3 N 2 3 1022.1 - - - - - - - - -
28/05:00am 13.2 NW 3 4 1022.7 - - - - - - - - -
28/04:30am 13.4 NW 3 5 1022.5 - - - - - - - - -
28/04:00am 13.9 N 4 6 1022.5 - - - - - - - - -
28/03:30am 13.9 NNW 3 4 1022.7 - - - - - - - - -
28/03:00am 14.1 NNW 4 7 1022.7 - 0.0 - - - - - - -
28/02:30am 13.8 NW 5 7 1023.3 - - - - - - - - -
28/02:00am 13.7 NW 4 5 1023.3 - - - - - - - - -
28/01:30am 13.8 NW 4 5 1023.3 - - - - - - - - -
28/01:00am 13.8 WNW 5 6 1023.3 - - - - - - - - -
28/12:30am 13.8 NW 5 5 1023.4 - - - - - - - - -
28/12:00am 14.2 WNW 4 6 1023.9 - - - - - - - - -
 
Date/Time
EST
Temp
°C
Wind Pressure Rain since
9am
mm
Weather Cloud Vis
km
Sea
Height
m
Swell
Dir  Spd
kts
Gust
kts
hPa Trend Height
m
Period
s
Dir
27/11:30pm 13.8 WNW 4 6 1024.2 - - - - - - - - -
27/11:00pm 13.3 WNW 4 6 1024.3 - - - - - - - - -
27/10:30pm 13.2 W 5 6 1024.3 - - - - - - - - -
27/10:00pm 13.8 WNW 4 5 1024.1 - - - - - - - - -
27/09:30pm 14.0 NW 4 5 1024.1 - - - - - - - - -
27/09:00pm 14.4 WNW 4 6 1024.4 - 0.0 - - - - - - -
27/08:30pm 14.3 WNW 4 6 1024.4 - - - - - - - - -
27/08:00pm 14.4 WNW 4 5 1024.4 - - - - - - - - -
27/07:30pm 14.7 WNW 4 5 1024.4 - - - - - - - - -
27/07:00pm 14.7 WNW 3 5 1024.4 - - - - - - - - -
27/06:30pm 15.5 ENE 1 2 1023.9 - - - - - - - - -
27/06:00pm 15.5 CALM 0 2 1023.9 - - - - - - - - -
27/05:30pm 15.6 CALM 0 1 1023.8 - - - - - - - - -
27/05:00pm 15.5 SSE 2 4 1023.9 - - - - - - - - -
27/04:30pm 15.6 SSE 3 5 1023.9 - - - - - - - - -
27/04:00pm 15.6 SSE 3 4 1023.6 - - - - - - - - -
27/03:30pm 16.1 SSW 1 3 1024.0 - - - - - - - - -
27/03:00pm 16.5 SSW 3 4 1024.0 - - - - - - - - -
27/02:30pm 16.3 SW 2 3 1024.5 - - - - - - - - -
27/02:00pm 16.4 SSW 5 6 1024.6 - - - - - - - - -
27/01:30pm 16.5 SSW 4 5 1024.6 - - - - - - - - -
27/01:00pm 16.4 SSW 5 7 1024.9 - - - - - - - - -
27/12:30pm 16.1 SW 2 4 1025.0 - - - - - - - - -
27/12:00pm 15.6 SW 3 6 1025.3 - - - - - - - - -
27/11:30am 15.4 WSW 4 7 1026.0 - - - - - - - - -
27/11:00am 15.8 WSW 5 8 1026.3 - - - - - - - - -
27/10:30am 15.1 W 5 7 1026.4 - - - - - - - - -
27/10:00am 14.2 - - - 1026.4 - - - - - - - - -
27/09:30am 13.1 W 6 8 1026.5 - 0.0 - - - - - - -
27/09:00am 11.9 W 8 10 1026.2 - - - - - - - - -
27/08:30am 11.0 W 9 11 1026.1 - - - - - - - - -
27/08:00am 10.4 W 10 13 1025.7 - - - - - - - - -
27/07:30am 9.9 W 10 12 1025.8 - - - - - - - - -
27/07:00am 10.0 W 11 13 1025.7 - - - - - - - - -
27/06:30am 9.9 W 10 14 1025.5 - - - - - - - - -
27/06:00am 9.6 W 10 13 1025.3 - - - - - - - - -
27/05:30am 10.0 W 11 13 1025.2 - - - - - - - - -
27/05:00am 10.0 W 10 13 1024.9 - - - - - - - - -
27/04:30am 10.3 W 10 13 1024.8 - - - - - - - - -
27/04:00am 10.2 W 9 12 1025.0 - - - - - - - - -
27/03:30am 10.2 W 10 13 1025.0 - - - - - - - - -
27/03:00am 10.2 W 9 12 1024.7 - 0.0 - - - - - - -
27/02:30am 10.1 W 10 12 1024.7 - - - - - - - - -
27/02:00am 10.6 W 10 12 1024.7 - - - - - - - - -
27/01:30am 12.1 W 9 11 1024.5 - - - - - - - - -
27/01:00am 11.9 W 10 11 1024.7 - - - - - - - - -
27/12:30am 12.5 W 7 9 1024.6 - - - - - - - - -
27/12:00am 13.2 W 6 8 1024.5 - - - - - - - - -
 
Date/Time
EST
Temp
°C
Wind Pressure Rain since
9am
mm
Weather Cloud Vis
km
Sea
Height
m
Swell
Dir  Spd
kts
Gust
kts
hPa Trend Height
m
Period
s
Dir
26/11:30pm 12.9 W 8 9 1024.8 - - - - - - - - -
26/11:00pm 12.9 W 8 9 1025.1 - - - - - - - - -
26/10:30pm 12.8 W 6 7 1024.9 - - - - - - - - -
26/10:00pm 12.7 W 5 7 1024.8 - - - - - - - - -
26/09:30pm 12.8 WSW 5 6 1024.7 - - - - - - - - -
26/09:00pm 12.8 WSW 4 5 1024.4 - - - - - - - - -
26/08:30pm 13.5 SW 3 3 1024.3 - - - - - - - - -
26/08:00pm 13.9 WSW 1 2 1024.3 - - - - - - - - -
26/07:30pm 13.7 W 2 3 1024.0 - - - - - - - - -
26/07:00pm 14.7 SW 1 2 1023.7 - - - - - - - - -
26/06:30pm 15.0 S 1 2 1023.3 - - - - - - - - -
26/06:00pm 14.8 CALM 0 0 1023.1 - - - - - - - - -
26/05:30pm 14.8 CALM 0 0 1022.6 - - - - - - - - -
26/05:00pm 15.1 SSW 1 3 1022.1 - - - - - - - - -
26/04:30pm 15.0 CALM 0 2 1022.0 - - - - - - - - -
26/04:00pm 15.3 CALM 0 2 1021.8 - - - - - - - - -
26/03:30pm 15.5 SSW 3 4 1021.6 - - - - - - - - -
26/03:00pm 16.0 SSW 4 6 1021.4 - 0.2 - - - - - - -
26/02:30pm 16.7 SSW 5 7 1021.4 - - - - - - - - -
26/02:00pm 17.0 SSW 3 5 1021.3 - - - - - - - - -
26/01:30pm 17.1 SW 2 7 1021.4 - - - - - - - - -
26/01:00pm 16.5 SSW 6 9 1021.5 - - - - - - - - -
26/12:30pm 16.3 SW 4 8 1021.6 - - - - - - - - -
26/12:00pm 15.9 SW 6 8 1021.7 - - - - - - - - -
26/11:30am 16.1 WSW 7 12 1022.0 - - - - - - - - -
26/11:00am 15.8 SW 5 8 1022.2 - - - - - - - - -
26/10:00am 14.4 W 3 11 1022.5 - 0.0 - - - - - - -
26/09:30am 13.4 W 3 6 1022.3 - 0.0 - - - - - - -
26/09:00am 12.5 WNW 4 8 1022.0 - 0.0 - - - - - - -
26/08:30am 11.2 WNW 5 9 1021.6 - 0.0 - - - - - - -
26/08:00am 10.8 WNW 5 9 1021.1 - 0.0 - - - - - - -
26/07:30am 9.8 WNW 6 10 1020.9 - 0.0 - - - - - - -
26/07:00am 9.6 WNW 6 10 1020.6 - 0.0 - - - - - - -
26/06:30am 10.0 WNW 7 10 1020.2 - 0.0 - - - - - - -
26/06:00am 10.2 WNW 7 10 1019.8 - 0.0 - - - - - - -
26/05:30am 10.2 W 7 10 1019.3 - 0.0 - - - - - - -
26/05:00am 10.3 W 7 9 1019.1 - 0.0 - - - - - - -
26/04:30am 10.5 WNW 6 8 1018.8 - 0.0 - - - - - - -
26/04:00am 10.7 WNW 6 9 1018.7 - 0.0 - - - - - - -
26/03:30am 11.1 WNW 6 11 1018.7 - 0.0 - - - - - - -
26/03:00am 11.0 WNW 5 9 1018.5 - 0.0 - - - - - - -
26/02:30am 10.7 WNW 5 9 1018.4 - 0.0 - - - - - - -
26/02:00am 11.3 WNW 6 9 1018.2 - 0.0 - - - - - - -
26/01:30am 11.5 WNW 5 7 1018.2 - 0.0 - - - - - - -
26/01:00am 11.4 WNW 5 8 1018.3 - 0.0 - - - - - - -
26/12:30am 12.0 W 7 9 1018.3 - 0.0 - - - - - - -
26/12:00am 12.1 W 6 8 1018.6 - 0.0 - - - - - - -
 
Date/Time
EST
Temp
°C
Wind Pressure Rain since
9am
mm
Weather Cloud Vis
km
Sea
Height
m
Swell
Dir  Spd
kts
Gust
kts
hPa Trend Height
m
Period
s
Dir
25/11:30pm 12.3 WNW 6 7 1018.8 - 0.0 - - - - - - -
25/11:00pm 12.7 W 6 7 1018.8 - 0.0 - - - - - - -
25/10:30pm 13.0 W 5 7 1018.7 - 0.0 - - - - - - -

Other Formats:

Comma delimited format used in spreadsheet applications
http://www.bom.gov.au/fwo/IDN60701/IDN60701.95770.axf

JavaScript Object Notation format (JSON) in row-major order
http://www.bom.gov.au/fwo/IDN60701/IDN60701.95770.json